Time;durP1;ratioP1;P1;durP2;ratioP2;P2;SDS_P1;SDS_P2;PMS_P1;PMS_P2;Temp;Humidity;BMP_temperature;BMP_pressure;BME280_temperature;BME280_humidity;BME280_pressure;Samples;Min_cycle;Max_cycle;Signal;HPM_P1;HPM_P2
2024/04/14 00:02:24;;;;;;;6.10;3.33;;;;;;;13.84;100.00;101030.06;5339749;26;20357;-71
2024/04/14 00:04:58;;;;;;;4.83;3.47;;;;;;;13.84;100.00;101035.38;5335590;26;20223;-71
2024/04/14 00:07:29;;;;;;;7.33;3.57;;;;;;;13.85;100.00;101018.31;5349342;26;20261;-71
2024/04/14 00:10:09;;;;;;;6.43;3.37;;;;;;;13.85;100.00;101017.53;5339699;26;20235;-72
2024/04/14 00:12:44;;;;;;;6.17;3.80;;;;;;;13.86;100.00;101013.75;5338505;26;21096;-71
2024/04/14 00:15:13;;;;;;;4.60;3.80;;;;;;;13.84;100.00;101011.47;5336445;26;20277;-71
2024/04/14 00:17:42;;;;;;;5.53;3.53;;;;;;;13.86;100.00;101013.75;5341660;26;20238;-72
2024/04/14 00:20:12;;;;;;;5.57;3.23;;;;;;;13.85;100.00;100999.72;5339905;26;20239;-71
2024/04/14 00:22:46;;;;;;;4.63;3.17;;;;;;;13.85;100.00;100998.94;5345851;26;20234;-71
2024/04/14 00:25:17;;;;;;;3.43;3.13;;;;;;;13.84;100.00;100997.41;5346850;26;20238;-71
2024/04/14 00:27:44;;;;;;;4.70;3.30;;;;;;;13.83;100.00;100983.38;5340666;26;20274;-71
2024/04/14 00:30:26;;;;;;;7.13;3.20;;;;;;;13.83;100.00;100993.22;5342747;26;20285;-71
2024/04/14 00:33:05;;;;;;;4.90;3.90;;;;;;;13.83;100.00;100985.25;5349880;26;20277;-71
2024/04/14 00:35:37;;;;;;;4.53;3.27;;;;;;;13.82;100.00;100981.81;5327867;26;20258;-71
2024/04/14 00:38:15;;;;;;;3.93;3.33;;;;;;;13.81;100.00;100977.63;5342608;26;20741;-72
2024/04/14 00:40:43;;;;;;;4.23;3.30;;;;;;;13.81;100.00;100988.25;5340736;26;20231;-71
2024/04/14 00:43:14;;;;;;;5.47;3.63;;;;;;;13.80;100.00;100994.66;5339379;26;20282;-71
2024/04/14 00:45:48;;;;;;;5.17;3.80;;;;;;;13.78;100.00;100988.16;5339788;26;20231;-72
2024/04/14 00:48:17;;;;;;;5.83;3.87;;;;;;;13.76;100.00;100983.16;5347673;26;20237;-71
2024/04/14 00:50:47;;;;;;;5.67;3.47;;;;;;;13.75;100.00;100971.00;5349544;26;20230;-72
2024/04/14 00:53:13;;;;;;;6.33;3.83;;;;;;;13.72;100.00;100974.31;5373898;26;20348;-73
2024/04/14 00:55:43;;;;;;;6.17;3.50;;;;;;;13.71;100.00;100977.34;5350929;26;20243;-73
2024/04/14 00:58:09;;;;;;;6.57;3.53;;;;;;;13.69;100.00;100961.75;5344521;26;20345;-73
2024/04/14 01:00:37;;;;;;;3.77;3.43;;;;;;;13.69;100.00;100968.91;5365028;26;20245;-72
2024/04/14 01:03:03;;;;;;;4.17;3.20;;;;;;;13.67;100.00;100965.84;5362438;26;20234;-72
2024/04/14 01:05:34;;;;;;;5.13;3.50;;;;;;;13.64;100.00;100958.53;5346327;26;20238;-72
2024/04/14 01:08:00;;;;;;;4.20;3.60;;;;;;;13.62;100.00;100958.13;5343520;26;20231;-72
2024/04/14 01:10:29;;;;;;;4.80;3.53;;;;;;;13.61;100.00;100959.22;5344256;26;20286;-72
2024/04/14 01:12:55;;;;;;;3.67;2.90;;;;;;;13.59;100.00;100966.72;5344359;26;20586;-72
2024/04/14 01:15:23;;;;;;;5.23;3.80;;;;;;;13.58;100.00;100951.94;5344386;26;20289;-72
2024/04/14 01:17:48;;;;;;;3.97;3.10;;;;;;;13.55;100.00;100966.63;5364609;26;20245;-72
2024/04/14 01:20:17;;;;;;;4.70;3.33;;;;;;;13.53;100.00;100965.41;5349349;26;20235;-72
2024/04/14 01:22:45;;;;;;;5.03;3.33;;;;;;;13.51;100.00;100954.38;5331627;26;20351;-72
2024/04/14 01:25:15;;;;;;;5.13;2.97;;;;;;;13.49;100.00;100951.28;5345813;26;20265;-72
2024/04/14 01:27:41;;;;;;;4.37;3.20;;;;;;;13.48;100.00;100952.38;5336341;26;20369;-73
2024/04/14 01:30:10;;;;;;;5.13;3.00;;;;;;;13.49;100.00;100938.00;5352050;26;20662;-72
2024/04/14 01:32:37;;;;;;;4.50;2.90;;;;;;;13.52;100.00;100940.78;5354271;26;20235;-72
2024/04/14 01:35:06;;;;;;;3.37;2.90;;;;;;;13.61;100.00;100941.41;5352997;26;20616;-72
2024/04/14 01:37:32;;;;;;;4.23;2.70;;;;;;;13.67;100.00;100944.59;5346966;26;20287;-72
2024/04/14 01:40:01;;;;;;;4.67;2.60;;;;;;;13.75;100.00;100947.13;5339875;26;20241;-72
2024/04/14 01:42:30;;;;;;;3.97;2.70;;;;;;;13.84;100.00;100944.31;5344780;26;20345;-72
2024/04/14 01:44:58;;;;;;;4.67;3.43;;;;;;;13.91;100.00;100944.50;5330412;26;20987;-72
2024/04/14 01:47:24;;;;;;;4.53;3.00;;;;;;;14.01;100.00;100934.19;5342752;26;20625;-72
2024/04/14 01:49:52;;;;;;;3.40;2.67;;;;;;;14.08;100.00;100937.03;5343293;26;20230;-72
2024/04/14 01:52:18;;;;;;;4.13;2.73;;;;;;;14.13;100.00;100928.06;5350894;26;20778;-72
2024/04/14 01:54:47;;;;;;;4.10;2.80;;;;;;;14.18;100.00;100925.91;5345017;26;20624;-72
2024/04/14 01:57:12;;;;;;;5.37;2.70;;;;;;;14.32;100.00;100925.50;5351338;26;20350;-73
2024/04/14 01:59:43;;;;;;;7.00;2.57;;;;;;;14.39;100.00;100917.75;5347435;26;20243;-72
2024/04/14 02:02:08;;;;;;;2.67;2.40;;;;;;;14.44;100.00;100917.50;5345889;26;20238;-72
2024/04/14 02:04:36;;;;;;;3.13;2.40;;;;;;;14.52;100.00;100922.63;5357842;26;20239;-71
2024/04/14 02:07:01;;;;;;;4.53;2.40;;;;;;;14.60;100.00;100911.03;5358299;26;20907;-72
2024/04/14 02:09:30;;;;;;;4.63;2.30;;;;;;;14.71;100.00;100916.63;5345928;26;20273;-72
2024/04/14 02:11:55;;;;;;;3.37;2.40;;;;;;;14.77;100.00;100901.94;5349491;26;20279;-72
2024/04/14 02:14:23;;;;;;;3.33;2.33;;;;;;;14.83;100.00;100901.34;5344035;26;20296;-72
2024/04/14 02:16:51;;;;;;;2.73;2.40;;;;;;;14.86;100.00;100903.28;5349739;26;20950;-72
2024/04/14 02:19:19;;;;;;;2.53;2.20;;;;;;;14.93;100.00;100903.47;5359001;26;20245;-73
2024/04/14 02:21:44;;;;;;;3.77;2.10;;;;;;;14.97;100.00;100907.00;5331318;26;20293;-72
2024/04/14 02:24:13;;;;;;;3.83;2.27;;;;;;;15.01;100.00;100907.06;5349492;26;20325;-72
2024/04/14 02:26:38;;;;;;;4.60;2.20;;;;;;;15.00;100.00;100895.66;5322607;26;20281;-72
2024/04/14 02:29:07;;;;;;;3.43;2.53;;;;;;;15.03;100.00;100905.59;5338490;26;20248;-72
2024/04/14 02:31:33;;;;;;;2.70;2.43;;;;;;;15.06;100.00;100896.91;5348157;26;20309;-72
2024/04/14 02:34:04;;;;;;;3.13;2.37;;;;;;;15.08;100.00;100894.69;5348705;26;20309;-72
2024/04/14 02:36:29;;;;;;;2.80;2.10;;;;;;;15.11;100.00;100890.56;5347675;26;20286;-72
2024/04/14 02:38:57;;;;;;;3.10;2.37;;;;;;;15.11;100.00;100891.31;5345483;26;20238;-72
2024/04/14 02:41:23;;;;;;;4.00;2.27;;;;;;;15.13;100.00;100891.75;5350729;26;20270;-72
2024/04/14 02:43:50;;;;;;;3.70;2.37;;;;;;;15.15;100.00;100896.72;5350558;26;20289;-72
2024/04/14 02:46:16;;;;;;;2.87;2.10;;;;;;;15.15;100.00;100904.69;5345500;26;20239;-72
2024/04/14 02:48:49;;;;;;;2.13;1.93;;;;;;;15.15;100.00;100902.81;5342961;26;20568;-71
2024/04/14 02:51:20;;;;;;;2.43;2.17;;;;;;;15.16;100.00;100892.97;5344871;26;20288;-72
2024/04/14 02:53:48;;;;;;;3.33;2.07;;;;;;;15.15;100.00;100892.19;5342895;26;20234;-72
2024/04/14 02:56:14;;;;;;;4.33;2.10;;;;;;;15.16;100.00;100895.63;5350412;26;20237;-72
2024/04/14 02:58:42;;;;;;;2.37;2.10;;;;;;;15.15;100.00;100894.06;5346250;26;20237;-72
2024/04/14 03:01:10;;;;;;;4.53;2.30;;;;;;;15.14;100.00;100889.84;5351303;26;20273;-72
2024/04/14 03:03:38;;;;;;;3.93;2.10;;;;;;;15.12;100.00;100894.75;5354361;26;20351;-72
2024/04/14 03:06:05;;;;;;;2.80;2.27;;;;;;;15.09;100.00;100898.09;5338658;26;20344;-72
2024/04/14 03:08:35;;;;;;;2.37;2.13;;;;;;;15.08;100.00;100900.00;5343955;26;20273;-72
2024/04/14 03:11:02;;;;;;;2.30;2.10;;;;;;;15.09;100.00;100901.56;5345043;26;20230;-72
2024/04/14 03:13:31;;;;;;;3.10;2.23;;;;;;;15.07;100.00;100905.69;5351595;26;20746;-72
2024/04/14 03:15:56;;;;;;;2.30;1.87;;;;;;;15.04;100.00;100895.72;5333818;26;20285;-72
2024/04/14 03:18:24;;;;;;;2.87;2.30;;;;;;;15.03;100.00;100894.19;5344447;26;20834;-73
2024/04/14 03:20:56;;;;;;;2.50;2.03;;;;;;;15.01;100.00;100894.53;5346324;26;20353;-72
2024/04/14 03:23:24;;;;;;;2.37;2.17;;;;;;;14.99;100.00;100893.31;5344069;26;20289;-72
2024/04/14 03:25:54;;;;;;;4.50;2.20;;;;;;;14.96;100.00;100892.13;5344316;26;20296;-72
2024/04/14 03:28:23;;;;;;;3.70;1.93;;;;;;;14.96;100.00;100894.03;5345908;26;20318;-71
2024/04/14 03:30:49;;;;;;;2.93;2.03;;;;;;;14.94;100.00;100893.59;5346320;26;20358;-73
2024/04/14 03:33:18;;;;;;;5.00;2.17;;;;;;;14.92;100.00;100891.31;5348056;26;20236;-72
2024/04/14 03:35:44;;;;;;;2.60;2.10;;;;;;;14.91;100.00;100888.97;5344229;26;20561;-72
2024/04/14 03:38:12;;;;;;;2.93;2.07;;;;;;;14.89;100.00;100889.31;5359544;26;20233;-72
2024/04/14 03:40:40;;;;;;;3.60;2.17;;;;;;;14.87;100.00;100888.91;5346781;26;20352;-72
2024/04/14 03:43:08;;;;;;;3.40;1.83;;;;;;;14.85;100.00;100888.47;5355852;26;20268;-72
2024/04/14 03:45:36;;;;;;;3.70;2.30;;;;;;;14.84;100.00;100883.50;5343357;26;20603;-74
2024/04/14 03:48:06;;;;;;;3.47;2.60;;;;;;;14.85;100.00;100885.06;5341540;26;20242;-73
2024/04/14 03:50:34;;;;;;;2.53;2.03;;;;;;;14.85;100.00;100885.81;5355277;26;20236;-73
2024/04/14 03:53:00;;;;;;;2.07;1.87;;;;;;;14.83;100.00;100888.06;5358251;26;20285;-72
2024/04/14 03:55:28;;;;;;;2.63;2.20;;;;;;;14.82;100.00;100883.84;5361996;26;20780;-72
2024/04/14 03:57:53;;;;;;;3.03;2.00;;;;;;;14.83;100.00;100895.25;5343717;26;20800;-72
2024/04/14 04:00:24;;;;;;;2.53;2.00;;;;;;;14.81;100.00;100882.28;5352510;26;20346;-72
2024/04/14 04:02:50;;;;;;;3.33;2.33;;;;;;;14.80;100.00;100893.28;5340961;26;20230;-72
2024/04/14 04:05:18;;;;;;;2.30;2.10;;;;;;;14.77;100.00;100886.78;5345334;26;20587;-72
2024/04/14 04:07:47;;;;;;;5.07;2.37;;;;;;;14.76;100.00;100890.53;5353389;26;20250;-72
2024/04/14 04:10:19;;;;;;;2.43;2.20;;;;;;;14.74;100.00;100898.09;5348906;26;20237;-72
2024/04/14 04:12:59;;;;;;;4.73;2.13;;;;;;;14.72;100.00;100897.69;5350108;26;20515;-72
2024/04/14 04:15:34;;;;;;;3.87;2.00;;;;;;;14.73;100.00;100901.09;5340945;26;20345;-73
2024/04/14 04:18:27;;;;;;;5.53;2.30;;;;;;;14.71;100.00;100898.00;5340390;26;20288;-73
2024/04/14 04:21:02;;;;;;;2.20;2.00;;;;;;;14.70;100.00;100897.22;5304838;26;20292;-73
2024/04/14 04:23:38;;;;;;;2.53;1.93;;;;;;;14.71;100.00;100900.66;5338526;26;20625;-72
2024/04/14 04:26:20;;;;;;;2.10;1.83;;;;;;;14.71;100.00;100903.34;5329228;26;20237;-72
2024/04/14 04:28:50;;;;;;;3.13;2.20;;;;;;;14.71;100.00;100903.34;5346900;26;20298;-73
2024/04/14 04:31:41;;;;;;;4.27;2.30;;;;;;;14.72;100.00;100899.56;5354772;26;20285;-72
2024/04/14 04:34:21;;;;;;;2.50;2.30;;;;;;;14.71;100.00;100898.00;5348344;26;20237;-72
2024/04/14 04:36:52;;;;;;;3.57;2.27;;;;;;;14.75;100.00;100898.88;5341516;26;20242;-72
2024/04/14 04:39:24;;;;;;;3.67;2.17;;;;;;;14.76;100.00;100903.81;5362057;26;20271;-72
2024/04/14 04:41:57;;;;;;;2.87;2.00;;;;;;;14.78;100.00;100901.59;5349006;26;20240;-72
2024/04/14 04:44:32;;;;;;;4.47;2.47;;;;;;;14.79;100.00;100905.81;5349494;26;20644;-72
2024/04/14 04:47:11;;;;;;;2.63;1.97;;;;;;;14.84;100.00;100907.41;5351425;26;20243;-72
2024/04/14 04:49:55;;;;;;;5.33;2.23;;;;;;;14.88;100.00;100908.28;5350911;26;20242;-72
2024/04/14 04:52:27;;;;;;;3.43;2.27;;;;;;;14.90;100.00;100914.03;5342100;26;20292;-72
2024/04/14 04:55:26;;;;;;;2.73;2.10;;;;;;;14.93;100.00;100922.09;5337967;26;20277;-72
2024/04/14 04:58:00;;;;;;;3.30;2.60;;;;;;;14.98;100.00;100923.69;5344358;26;20234;-72
2024/04/14 05:00:34;;;;;;;2.83;1.90;;;;;;;15.00;100.00;100930.22;5360336;26;20233;-72
2024/04/14 05:03:11;;;;;;;2.73;2.37;;;;;;;15.04;100.00;100924.97;5356115;26;20371;-72
2024/04/14 05:05:56;;;;;;;3.30;2.40;;;;;;;15.09;100.00;100922.03;5356177;26;20242;-72
2024/04/14 05:08:25;;;;;;;2.67;2.20;;;;;;;15.12;100.00;100924.78;5344807;26;20962;-73
2024/04/14 05:11:05;;;;;;;2.27;2.00;;;;;;;15.19;100.00;100924.16;5346132;26;20231;-72
2024/04/14 05:14:03;;;;;;;4.17;2.17;;;;;;;15.24;100.00;100932.66;5363987;26;20244;-72
2024/04/14 05:16:51;;;;;;;2.87;2.10;;;;;;;15.30;100.00;100931.28;5349837;26;20295;-72
2024/04/14 05:19:22;;;;;;;2.53;2.13;;;;;;;15.35;100.00;100931.03;5345796;26;20864;-72
2024/04/14 05:21:51;;;;;;;4.10;2.00;;;;;;;15.39;100.00;100945.19;5345036;26;20351;-72
2024/04/14 05:24:23;;;;;;;2.50;2.00;;;;;;;15.44;100.00;100933.47;5338853;26;20234;-72
2024/04/14 05:26:55;;;;;;;4.13;2.10;;;;;;;15.47;100.00;100935.47;5358201;26;20237;-72
2024/04/14 05:29:20;;;;;;;3.03;2.20;;;;;;;15.53;100.00;100942.03;5336667;26;20238;-72
2024/04/14 05:31:52;;;;;;;2.80;2.30;;;;;;;15.57;100.00;100951.63;5336054;26;20273;-72
2024/04/14 05:34:20;;;;;;;4.40;2.50;;;;;;;15.62;100.00;100958.59;5342271;26;20253;-72
2024/04/14 05:37:00;;;;;;;3.07;2.20;;;;;;;15.68;100.00;100944.63;5352365;26;20356;-72
2024/04/14 05:39:26;;;;;;;2.63;2.07;;;;;;;15.73;100.00;100954.25;5333359;26;20290;-72
2024/04/14 05:41:59;;;;;;;3.50;2.37;;;;;;;15.77;100.00;100961.19;5358025;26;20750;-72
2024/04/14 05:44:32;;;;;;;2.43;2.20;;;;;;;15.82;100.00;100957.44;5346125;26;20231;-72
2024/04/14 05:47:07;;;;;;;3.20;2.27;;;;;;;15.88;100.00;100958.75;5347584;26;20276;-72
2024/04/14 05:49:37;;;;;;;2.60;2.20;;;;;;;15.93;100.00;100958.47;5350055;26;20234;-74
2024/04/14 05:52:15;;;;;;;3.73;2.30;;;;;;;15.98;100.00;100961.59;5350843;26;20281;-72
2024/04/14 05:54:43;;;;;;;5.13;2.20;;;;;;;16.06;100.00;100970.50;5346458;26;20267;-72
2024/04/14 05:57:14;;;;;;;4.27;2.53;;;;;;;16.11;100.00;100970.22;5350569;26;20343;-72
2024/04/14 05:59:57;;;;;;;3.70;2.40;;;;;;;16.18;100.00;100980.97;5344337;26;20831;-72
2024/04/14 06:02:35;;;;;;;4.20;2.27;;;;;;;16.27;100.00;100985.00;5337524;26;20291;-73
2024/04/14 06:05:14;;;;;;;4.53;2.67;;;;;;;16.33;100.00;100975.56;5350617;26;20723;-72
2024/04/14 06:07:42;;;;;;;5.67;2.60;;;;;;;16.42;100.00;100975.38;5350511;26;20254;-72
2024/04/14 06:10:34;;;;;;;2.97;2.23;;;;;;;16.50;100.00;100985.03;5356362;26;20287;-72
2024/04/14 06:13:00;;;;;;;5.00;2.43;;;;;;;16.56;100.00;100981.72;5349385;26;20289;-72
2024/04/14 06:15:29;;;;;;;2.80;2.50;;;;;;;16.65;100.00;100974.25;5355670;26;20289;-72
2024/04/14 06:17:55;;;;;;;2.87;2.47;;;;;;;16.73;100.00;100981.25;5344295;26;20231;-72
2024/04/14 06:20:25;;;;;;;4.03;2.60;;;;;;;16.81;100.00;100987.47;5346458;26;20285;-72
2024/04/14 06:22:59;;;;;;;3.73;2.87;;;;;;;16.89;100.00;100983.78;5361448;26;20839;-72
2024/04/14 06:25:34;;;;;;;4.77;2.77;;;;;;;16.98;100.00;100993.06;5348319;26;20724;-72
2024/04/14 06:28:05;;;;;;;5.10;2.80;;;;;;;17.08;100.00;100999.72;5351358;26;20261;-72
2024/04/14 06:30:38;;;;;;;3.07;2.53;;;;;;;17.16;100.00;101007.47;5341582;26;20298;-72
2024/04/14 06:33:06;;;;;;;3.13;2.73;;;;;;;17.27;100.00;101012.94;5343826;26;20242;-72
2024/04/14 06:35:40;;;;;;;4.97;2.73;;;;;;;17.36;100.00;101002.78;5349906;26;20227;-72
2024/04/14 06:38:09;;;;;;;3.00;2.70;;;;;;;17.43;100.00;101010.94;5352421;26;20230;-72
2024/04/14 06:40:52;;;;;;;2.90;2.60;;;;;;;17.51;100.00;101017.91;5355724;26;20778;-73
2024/04/14 06:43:22;;;;;;;3.30;2.70;;;;;;;17.58;100.00;101023.34;5350957;26;20756;-72
2024/04/14 06:45:58;;;;;;;4.57;2.80;;;;;;;17.63;100.00;101021.13;5346050;26;20243;-72
2024/04/14 06:48:29;;;;;;;4.20;2.90;;;;;;;17.69;100.00;101024.28;5348853;26;20229;-72
2024/04/14 06:51:24;;;;;;;4.20;2.77;;;;;;;17.75;100.00;101038.84;5340592;26;20643;-72
2024/04/14 06:53:52;;;;;;;3.53;2.70;;;;;;;17.80;100.00;101038.53;5338710;26;20835;-72
2024/04/14 06:56:24;;;;;;;3.50;3.13;;;;;;;17.84;100.00;101050.00;5352761;26;20289;-72
2024/04/14 06:58:51;;;;;;;5.03;3.00;;;;;;;17.85;100.00;101052.31;5352832;26;20680;-73
2024/04/14 07:01:30;;;;;;;5.20;3.30;;;;;;;17.86;100.00;101050.44;5345265;26;20932;-72
2024/04/14 07:04:03;;;;;;;5.17;3.17;;;;;;;17.90;100.00;101049.34;5348272;26;20376;-73
2024/04/14 07:06:43;;;;;;;5.40;3.53;;;;;;;17.93;100.00;101048.63;5340239;26;20666;-72
2024/04/14 07:09:14;;;;;;;4.73;3.00;;;;;;;18.01;100.00;101052.91;5340742;26;20353;-71
2024/04/14 07:11:46;;;;;;;4.67;3.10;;;;;;;18.06;100.00;101055.25;5347331;26;20237;-72
2024/04/14 07:14:13;;;;;;;4.63;2.87;;;;;;;18.14;100.00;101061.47;5342879;26;20235;-72
2024/04/14 07:16:46;;;;;;;6.50;3.20;;;;;;;18.19;100.00;101050.44;5346632;26;20694;-73
2024/04/14 07:19:23;;;;;;;;;;;;;;;;;;;;;
2024/04/14 07:22:17;;;;;;;4.47;3.03;;;;;;;18.25;100.00;101067.69;5346678;26;20569;-71
2024/04/14 07:24:50;;;;;;;4.73;3.23;;;;;;;18.26;100.00;101055.91;5344732;26;20242;-72
2024/04/14 07:27:26;;;;;;;7.37;3.27;;;;;;;18.31;100.00;101067.03;5342431;26;20568;-73
2024/04/14 07:30:06;;;;;;;6.37;3.40;;;;;;;18.34;100.00;101065.56;5351150;26;20273;-73
2024/04/14 07:32:43;;;;;;;5.97;3.13;;;;;;;18.36;100.00;101072.06;5346279;26;20293;-73
2024/04/14 07:35:44;;;;;;;4.23;3.10;;;;;;;18.35;100.00;101086.59;5346644;26;20274;-72
2024/04/14 07:38:30;;;;;;;4.30;3.00;;;;;;;18.34;100.00;101085.06;5351465;26;20763;-72
2024/04/14 07:41:05;;;;;;;4.73;3.30;;;;;;;18.33;100.00;101096.09;5340622;26;20239;-72
2024/04/14 07:43:51;;;;;;;3.43;2.60;;;;;;;18.33;100.00;101093.44;5351120;26;20246;-73
2024/04/14 07:46:26;;;;;;;7.40;3.07;;;;;;;18.35;100.00;101086.59;5355100;26;20571;-72
2024/04/14 07:49:14;;;;;;;5.77;3.27;;;;;;;18.43;100.00;101090.88;5343865;26;20778;-72
2024/04/14 07:51:54;;;;;;;3.27;2.30;;;;;;;18.50;100.00;101082.94;5346685;26;20773;-73
2024/04/14 07:54:33;;;;;;;4.17;2.90;;;;;;;18.55;100.00;101097.88;5343096;26;20737;-72
2024/04/14 07:57:09;;;;;;;4.33;2.40;;;;;;;18.54;93.38;101099.78;5349322;26;20277;-72
2024/04/14 07:59:46;;;;;;;3.07;2.40;;;;;;;18.53;88.37;101089.47;5340069;26;20265;-72
2024/04/14 08:02:23;;;;;;;6.07;2.73;;;;;;;18.56;93.22;101100.19;5339945;26;20281;-73
2024/04/14 08:04:54;;;;;;;5.47;2.53;;;;;;;18.67;91.90;101098.41;5341877;26;20293;-72
2024/04/14 08:07:24;;;;;;;7.20;2.77;;;;;;;18.77;89.36;101103.09;5345007;26;20789;-72
2024/04/14 08:09:55;;;;;;;4.67;3.03;;;;;;;18.85;88.71;101107.38;5317390;26;20246;-73
2024/04/14 08:12:21;;;;;;;3.50;2.37;;;;;;;18.90;85.29;101106.28;5354720;26;20324;-72
2024/04/14 08:14:49;;;;;;;4.13;2.30;;;;;;;18.93;87.42;101098.28;5346489;26;20227;-72
2024/04/14 08:17:14;;;;;;;6.17;2.40;;;;;;;18.97;84.05;101101.75;5346583;26;20289;-72
2024/04/14 08:19:42;;;;;;;3.17;1.97;;;;;;;18.98;85.24;101100.63;5340424;26;20482;-72
2024/04/14 08:22:08;;;;;;;5.40;2.20;;;;;;;18.88;77.80;101119.25;5340418;26;20311;-71
2024/04/14 08:24:36;;;;;;;2.67;1.73;;;;;;;18.84;75.98;101113.09;5340497;26;20230;-72
2024/04/14 08:27:04;;;;;;;7.53;2.37;;;;;;;18.83;77.31;101117.66;5333602;26;20254;-72
2024/04/14 08:29:32;;;;;;;3.13;1.77;;;;;;;18.77;76.46;101115.69;5345147;26;20689;-73
2024/04/14 08:32:00;;;;;;;4.70;2.07;;;;;;;18.80;77.95;101118.41;5346840;26;20294;-72
2024/04/14 08:34:28;;;;;;;3.37;1.80;;;;;;;18.80;77.76;101125.66;5339616;26;20243;-72
2024/04/14 08:36:54;;;;;;;2.73;1.83;;;;;;;18.74;75.75;101125.22;5340466;26;20269;-72
2024/04/14 08:39:22;;;;;;;1.90;1.70;;;;;;;18.76;76.61;101130.19;5343593;26;20242;-72
2024/04/14 08:41:48;;;;;;;3.47;1.87;;;;;;;18.78;77.89;101125.28;5347180;26;20391;-72
2024/04/14 08:44:19;;;;;;;4.37;1.83;;;;;;;18.78;78.88;101127.94;5340605;26;20301;-73
2024/04/14 08:46:46;;;;;;;4.87;3.60;;;;;;;18.81;78.96;101121.84;5328453;26;20270;-73
2024/04/14 08:49:15;;;;;;;5.00;2.37;;;;;;;18.81;78.60;101136.00;5329983;26;20732;-72
2024/04/14 08:51:41;;;;;;;3.97;1.90;;;;;;;18.81;74.88;101136.00;5337920;26;20331;-72
2024/04/14 08:54:09;;;;;;;4.93;2.03;;;;;;;18.82;75.62;101134.88;5339293;26;20232;-72
2024/04/14 08:56:34;;;;;;;5.63;1.90;;;;;;;18.88;73.73;101132.66;5374745;26;20410;-72
2024/04/14 08:59:06;;;;;;;5.27;1.97;;;;;;;18.94;73.45;101131.16;5344219;26;20235;-71
2024/04/14 09:01:35;;;;;;;1.83;1.63;;;;;;;19.03;73.50;101135.06;5339497;26;20306;-71
2024/04/14 09:04:06;;;;;;;3.57;2.00;;;;;;;19.12;75.42;101137.44;5340641;26;20331;-71
2024/04/14 09:06:32;;;;;;;3.63;1.80;;;;;;;19.14;74.14;101143.97;5338380;26;20805;-71
2024/04/14 09:09:00;;;;;;;3.63;1.97;;;;;;;19.19;76.63;101134.84;5342491;26;20566;-72
2024/04/14 09:11:26;;;;;;;4.23;1.90;;;;;;;19.23;76.49;101133.75;5341733;26;20278;-71
2024/04/14 09:13:54;;;;;;;4.87;2.00;;;;;;;19.20;72.02;101131.03;5312022;26;20242;-72
2024/04/14 09:16:19;;;;;;;4.77;1.80;;;;;;;19.28;76.80;101143.34;5319971;26;20713;-74
2024/04/14 09:18:50;;;;;;;3.50;1.83;;;;;;;19.30;72.33;101149.88;5341393;26;20235;-71
2024/04/14 09:21:15;;;;;;;3.10;1.67;;;;;;;19.25;71.98;101149.47;5345170;26;20265;-71
2024/04/14 09:23:43;;;;;;;4.27;1.00;;;;;;;19.30;71.30;101165.19;5340981;26;20831;-71
2024/04/14 09:26:09;;;;;;;3.73;1.37;;;;;;;19.36;72.37;101163.72;5344141;26;20310;-72
2024/04/14 09:28:37;;;;;;;3.50;1.47;;;;;;;19.39;69.19;101145.00;5345988;26;20321;-72
2024/04/14 09:31:02;;;;;;;1.93;1.20;;;;;;;19.45;68.23;101143.50;5340526;26;20234;-72
2024/04/14 09:33:31;;;;;;;3.47;1.40;;;;;;;19.50;67.40;101140.47;5351366;26;20352;-71
2024/04/14 09:36:00;;;;;;;3.80;1.67;;;;;;;19.51;67.60;101152.72;5329653;26;20285;-71
2024/04/14 09:38:30;;;;;;;2.63;1.70;;;;;;;19.56;67.25;101141.66;5346766;26;20234;-71
2024/04/14 09:40:56;;;;;;;5.23;1.60;;;;;;;19.59;64.57;101148.19;5345147;26;20246;-71
2024/04/14 09:43:25;;;;;;;3.63;2.33;;;;;;;19.64;64.67;101145.16;5339261;26;20348;-72
2024/04/14 09:45:53;;;;;;;11.60;1.90;;;;;;;19.63;63.92;101151.66;5350024;26;20397;-71
2024/04/14 09:48:24;;;;;;;4.97;2.20;;;;;;;19.61;63.10;101145.94;5336802;26;20274;-72
2024/04/14 09:50:50;;;;;;;3.63;2.03;;;;;;;19.67;63.05;101144.44;5339810;26;20345;-71
2024/04/14 09:53:22;;;;;;;4.53;1.87;;;;;;;19.78;60.27;101139.91;5349136;26;20276;-72
2024/04/14 09:55:48;;;;;;;5.30;2.70;;;;;;;19.89;63.96;101132.69;5336724;26;20242;-72
2024/04/14 09:58:16;;;;;;;4.47;2.00;;;;;;;20.01;62.32;101137.75;5341287;26;20315;-71
2024/04/14 10:00:42;;;;;;;2.93;1.97;;;;;;;20.13;62.09;101140.91;5349569;26;20302;-71
2024/04/14 10:03:12;;;;;;;4.63;2.60;;;;;;;20.17;63.01;101139.00;5346388;26;20289;-71
2024/04/14 10:05:40;;;;;;;6.03;2.47;;;;;;;19.99;58.99;101140.03;5345993;26;20239;-72
2024/04/14 10:08:10;;;;;;;5.83;2.97;;;;;;;19.96;59.62;101141.56;5340513;26;20235;-72
2024/04/14 10:10:38;;;;;;;2.67;1.60;;;;;;;19.84;59.19;101138.41;5348341;26;21095;-71
2024/04/14 10:13:09;;;;;;;3.33;2.10;;;;;;;19.82;58.82;101152.19;5343416;26;20357;-72
2024/04/14 10:15:36;;;;;;;4.27;1.93;;;;;;;19.85;61.19;101143.41;5314416;26;20301;-72
2024/04/14 10:18:11;;;;;;;2.80;1.60;;;;;;;19.81;60.55;101145.28;5339786;26;20284;-72
2024/04/14 10:20:42;;;;;;;5.97;1.80;;;;;;;19.59;60.00;101138.25;5338015;26;20318;-71
2024/04/14 10:23:10;;;;;;;3.23;1.37;;;;;;;19.38;61.64;101142.66;5341268;26;20721;-71
2024/04/14 10:25:44;;;;;;;2.97;1.90;;;;;;;19.36;62.32;101134.25;5346012;26;20281;-72
2024/04/14 10:28:12;;;;;;;3.80;2.00;;;;;;;19.42;62.45;101136.22;5340435;26;20273;-72
2024/04/14 10:30:38;;;;;;;3.97;2.30;;;;;;;19.51;63.08;101133.22;5341187;26;20868;-72
2024/04/14 10:33:07;;;;;;;3.60;1.47;;;;;;;19.48;62.58;101145.44;5341095;26;20246;-71
2024/04/14 10:35:33;;;;;;;4.23;1.40;;;;;;;19.36;61.58;101144.97;5338154;26;20773;-71
2024/04/14 10:38:02;;;;;;;3.70;1.50;;;;;;;19.34;61.86;101153.34;5318956;26;20242;-71
2024/04/14 10:40:27;;;;;;;3.80;1.50;;;;;;;19.28;61.12;101149.50;5346978;26;20247;-71
2024/04/14 10:42:58;;;;;;;3.63;1.87;;;;;;;19.27;60.00;101158.66;5346255;26;20637;-71
2024/04/14 10:45:25;;;;;;;5.30;2.27;;;;;;;19.31;60.80;101167.47;5347769;26;20231;-71
2024/04/14 10:47:53;;;;;;;4.13;1.77;;;;;;;19.36;59.70;101140.34;5348220;26;20254;-71
2024/04/14 10:50:19;;;;;;;5.10;1.70;;;;;;;19.38;60.15;101148.03;5346145;26;20227;-72
2024/04/14 10:52:47;;;;;;;5.17;1.90;;;;;;;19.39;60.49;101136.16;5344962;26;20330;-71
2024/04/14 10:55:12;;;;;;;4.53;1.40;;;;;;;19.43;61.95;101161.88;5343516;26;20227;-71
2024/04/14 10:57:40;;;;;;;4.23;1.70;;;;;;;19.49;61.66;101144.31;5336321;26;20286;-72
2024/04/14 11:00:10;;;;;;;4.47;1.77;;;;;;;19.42;60.81;101136.22;5341974;26;20337;-71
2024/04/14 11:02:39;;;;;;;5.83;1.90;;;;;;;19.51;61.84;101150.03;5339864;26;20714;-72
2024/04/14 11:05:06;;;;;;;2.00;1.23;;;;;;;19.59;59.60;101132.91;5340934;26;20365;-71
2024/04/14 11:07:34;;;;;;;5.03;2.63;;;;;;;19.69;57.02;101131.44;5340996;26;20238;-72
2024/04/14 11:10:00;;;;;;;12.37;5.93;;;;;;;19.80;57.12;101146.44;5346781;26;20286;-72
2024/04/14 11:12:28;;;;;;;4.60;3.10;;;;;;;19.78;54.96;101150.63;5344560;26;20674;-72
2024/04/14 11:14:54;;;;;;;4.00;1.50;;;;;;;19.73;55.44;101162.47;5340913;26;20352;-72
2024/04/14 11:17:25;;;;;;;4.60;1.70;;;;;;;19.68;56.15;101156.69;5346601;26;20254;-72
2024/04/14 11:19:51;;;;;;;2.10;1.23;;;;;;;19.74;54.77;101157.88;5349925;26;20262;-72
2024/04/14 11:22:19;;;;;;;4.70;2.07;;;;;;;19.76;51.31;101151.00;5341603;26;20291;-71
2024/04/14 11:24:49;;;;;;;5.20;1.40;;;;;;;19.84;52.43;101159.84;5340481;26;20239;-72
2024/04/14 11:27:18;;;;;;;6.07;1.90;;;;;;;19.85;50.07;101159.50;5341910;26;20691;-71
2024/04/14 11:29:43;;;;;;;3.70;1.70;;;;;;;19.87;52.47;101157.19;5343545;26;20323;-71
2024/04/14 11:34:55;;;;;;;2.10;1.03;;;;;;;20.00;51.79;101149.63;5338618;26;20356;-71
2024/04/14 11:37:21;;;;;;;2.97;1.23;;;;;;;20.09;55.28;101142.03;5327930;26;20317;-72
2024/04/14 11:39:50;;;;;;;5.23;1.37;;;;;;;20.17;51.93;101151.66;5333945;26;20344;-71
2024/04/14 11:42:17;;;;;;;5.53;1.50;;;;;;;20.14;50.66;101152.41;5344852;26;20409;-72